Time,TemperatureF,DewpointF,PressureIn,WindDirection,WindDirectionDegrees,WindSpeedMPH,WindSpeedGustMPH,Humidity,HourlyPrecipIn,Conditions,Clouds,dailyrainin,SolarRadiationWatts/m^2,SoftwareType,DateUTC
2013-08-10 00:02:00,71.0,48.0,-100.00,WSW,254,5.0,14.0,44,0.00,,,0.00,0.000000,,2013-08-10 06:02:00,
2013-08-10 00:11:00,71.0,48.0,-100.00,WSW,254,5.0,14.0,44,0.00,,,0.00,0.000000,,2013-08-10 06:11:00,
2013-08-10 00:22:00,71.0,48.0,-100.00,WSW,254,5.0,14.0,44,0.00,,,0.00,0.000000,,2013-08-10 06:22:00,
2013-08-10 00:30:00,67.0,46.0,-100.00,WSW,253,3.0,6.0,47,0.00,,,0.00,0.000000,,2013-08-10 06:30:00,
2013-08-10 01:02:00,67.0,46.0,-100.00,WSW,253,3.0,6.0,47,0.00,,,0.00,0.000000,,2013-08-10 07:02:00,
2013-08-10 01:12:00,67.0,46.0,-100.00,WSW,253,3.0,6.0,47,0.00,,,0.00,0.000000,,2013-08-10 07:12:00,
2013-08-10 01:22:00,67.0,46.0,-100.00,WSW,253,3.0,6.0,47,0.00,,,0.00,0.000000,,2013-08-10 07:22:00,
2013-08-10 01:30:00,67.0,45.0,-100.00,West,276,3.0,7.0,45,0.00,,,0.00,0.000000,,2013-08-10 07:30:00,
2013-08-10 02:01:00,67.0,45.0,-100.00,West,276,3.0,7.0,45,0.00,,,0.00,0.000000,,2013-08-10 08:01:00,
2013-08-10 02:12:00,67.0,45.0,-100.00,West,276,3.0,7.0,45,0.00,,,0.00,0.000000,,2013-08-10 08:12:00,
2013-08-10 02:21:00,67.0,45.0,-100.00,West,276,3.0,7.0,45,0.00,,,0.00,0.000000,,2013-08-10 08:21:00,
2013-08-10 02:30:00,65.0,46.0,-100.00,West,273,4.0,7.0,51,0.00,,,0.00,0.000000,,2013-08-10 08:30:00,
2013-08-10 03:02:00,65.0,46.0,-100.00,West,273,4.0,7.0,51,0.00,,,0.00,0.000000,,2013-08-10 09:02:00,
2013-08-10 03:12:00,65.0,46.0,-100.00,West,273,4.0,7.0,51,0.00,,,0.00,0.000000,,2013-08-10 09:12:00,
2013-08-10 03:21:00,65.0,46.0,-100.00,West,273,4.0,7.0,51,0.00,,,0.00,0.000000,,2013-08-10 09:21:00,
2013-08-10 03:30:00,65.0,50.0,-100.00,NW,308,6.0,9.0,58,0.00,,,0.00,0.000000,,2013-08-10 09:30:00,
2013-08-10 04:01:00,65.0,50.0,-100.00,NW,308,6.0,9.0,58,0.00,,,0.00,0.000000,,2013-08-10 10:01:00,
2013-08-10 04:11:00,65.0,50.0,-100.00,NW,308,6.0,9.0,58,0.00,,,0.00,0.000000,,2013-08-10 10:11:00,
2013-08-10 04:21:00,65.0,50.0,-100.00,NW,308,6.0,9.0,58,0.00,,,0.00,0.000000,,2013-08-10 10:21:00,
2013-08-10 04:30:00,60.0,46.0,-100.00,WNW,300,3.0,8.0,59,0.00,,,0.00,0.000000,,2013-08-10 10:30:00,
2013-08-10 05:02:00,60.0,46.0,-100.00,WNW,300,3.0,8.0,59,0.00,,,0.00,0.000000,,2013-08-10 11:02:00,
2013-08-10 05:11:00,60.0,46.0,-100.00,WNW,300,3.0,8.0,59,0.00,,,0.00,0.000000,,2013-08-10 11:11:00,
2013-08-10 05:21:00,60.0,46.0,-100.00,WNW,300,3.0,8.0,59,0.00,,,0.00,0.000000,,2013-08-10 11:21:00,
2013-08-10 07:30:00,60.0,49.0,-100.00,West,269,5.0,11.0,68,-99.99,,,0.00,52.000000,,2013-08-10 13:30:00,
2013-08-10 08:02:00,60.0,49.0,-100.00,West,269,5.0,11.0,68,-99.99,,,0.00,52.000000,,2013-08-10 14:02:00,
2013-08-10 08:12:00,60.0,49.0,-100.00,West,269,5.0,11.0,68,-99.99,,,0.00,52.000000,,2013-08-10 14:12:00,
2013-08-10 08:22:00,60.0,49.0,-100.00,West,269,5.0,11.0,68,-99.99,,,0.00,52.000000,,2013-08-10 14:22:00,
2013-08-10 08:30:00,62.0,51.0,-100.00,West,270,4.0,7.0,66,0.00,,,0.00,125.000000,,2013-08-10 14:30:00,
2013-08-10 09:02:00,62.0,51.0,-100.00,West,270,4.0,7.0,66,0.00,,,0.00,125.000000,,2013-08-10 15:02:00,
2013-08-10 09:11:00,62.0,51.0,-100.00,West,270,4.0,7.0,66,0.00,,,0.00,125.000000,,2013-08-10 15:11:00,
2013-08-10 09:22:00,62.0,51.0,-100.00,West,270,4.0,7.0,66,0.00,,,0.00,125.000000,,2013-08-10 15:22:00,
2013-08-10 09:30:00,68.0,52.0,-100.00,West,274,6.0,7.0,56,0.00,,,0.00,368.000000,,2013-08-10 15:30:00,
2013-08-10 10:01:00,68.0,52.0,-100.00,West,274,6.0,7.0,56,0.00,,,0.00,368.000000,,2013-08-10 16:01:00,
2013-08-10 10:11:00,68.0,52.0,-100.00,West,274,6.0,7.0,56,0.00,,,0.00,368.000000,,2013-08-10 16:11:00,
2013-08-10 10:22:00,68.0,52.0,-100.00,West,274,6.0,7.0,56,0.00,,,0.00,368.000000,,2013-08-10 16:22:00,
2013-08-10 10:30:00,74.0,52.0,-100.00,SW,216,4.0,7.0,47,0.00,,,0.00,537.000000,,2013-08-10 16:30:00,
2013-08-10 11:02:00,74.0,52.0,-100.00,SW,216,4.0,7.0,47,0.00,,,0.00,537.000000,,2013-08-10 17:02:00,
2013-08-10 11:12:00,74.0,52.0,-100.00,SW,216,4.0,7.0,47,0.00,,,0.00,537.000000,,2013-08-10 17:12:00,
2013-08-10 11:22:00,74.0,52.0,-100.00,SW,216,4.0,7.0,47,0.00,,,0.00,537.000000,,2013-08-10 17:22:00,
2013-08-10 11:30:00,80.0,53.0,-100.00,SE,135,3.0,9.0,40,0.00,,,0.00,759.000000,,2013-08-10 17:30:00,
2013-08-10 12:30:00,82.0,48.0,-100.00,East,95,4.0,10.0,31,0.00,,,0.00,890.000000,,2013-08-10 18:30:00,
2013-08-10 13:01:00,82.0,48.0,-100.00,East,95,4.0,10.0,31,0.00,,,0.00,890.000000,,2013-08-10 19:01:00,
2013-08-10 13:11:00,82.0,48.0,-100.00,East,95,4.0,10.0,31,0.00,,,0.00,890.000000,,2013-08-10 19:11:00,
2013-08-10 13:22:00,82.0,48.0,-100.00,East,95,4.0,10.0,31,0.00,,,0.00,890.000000,,2013-08-10 19:22:00,
2013-08-10 13:30:00,85.0,47.0,-100.00,SSE,150,4.0,11.0,27,0.00,,,0.00,967.000000,,2013-08-10 19:30:00,
2013-08-10 14:01:00,85.0,47.0,-100.00,SSE,150,4.0,11.0,27,0.00,,,0.00,967.000000,,2013-08-10 20:01:00,
2013-08-10 14:11:00,85.0,47.0,-100.00,SSE,150,4.0,11.0,27,0.00,,,0.00,967.000000,,2013-08-10 20:11:00,
2013-08-10 14:22:00,85.0,47.0,-100.00,SSE,150,4.0,11.0,27,0.00,,,0.00,967.000000,,2013-08-10 20:22:00,
2013-08-10 14:30:00,88.0,46.0,-100.00,ESE,116,6.0,11.0,23,0.00,,,0.00,1007.000000,,2013-08-10 20:30:00,
2013-08-10 14:53:00,88.0,46.0,-100.00,ESE,116,6.0,11.0,23,0.00,,,0.00,1007.000000,,2013-08-10 20:53:00,
2013-08-10 15:02:00,88.0,46.0,-100.00,ESE,116,6.0,11.0,23,0.00,,,0.00,1007.000000,,2013-08-10 21:02:00,
2013-08-10 15:11:00,88.0,46.0,-100.00,ESE,116,6.0,11.0,23,0.00,,,0.00,1007.000000,,2013-08-10 21:11:00,
2013-08-10 15:22:00,88.0,46.0,-100.00,ESE,116,6.0,11.0,23,0.00,,,0.00,1007.000000,,2013-08-10 21:22:00,
2013-08-10 15:30:00,87.0,45.0,-100.00,East,97,11.0,17.0,23,0.00,,,0.00,950.000000,,2013-08-10 21:30:00,
2013-08-10 16:01:00,87.0,45.0,-100.00,East,97,11.0,17.0,23,0.00,,,0.00,950.000000,,2013-08-10 22:01:00,
2013-08-10 16:11:00,87.0,45.0,-100.00,East,97,11.0,17.0,23,0.00,,,0.00,950.000000,,2013-08-10 22:11:00,
2013-08-10 16:21:00,87.0,45.0,-100.00,East,97,11.0,17.0,23,0.00,,,0.00,950.000000,,2013-08-10 22:21:00,
2013-08-10 16:30:00,87.0,47.0,-100.00,East,94,13.0,17.0,25,0.00,,,0.00,850.000000,,2013-08-10 22:30:00,
2013-08-10 17:01:00,87.0,47.0,-100.00,East,94,13.0,17.0,25,0.00,,,0.00,850.000000,,2013-08-10 23:01:00,
2013-08-10 17:12:00,87.0,47.0,-100.00,East,94,13.0,17.0,25,0.00,,,0.00,850.000000,,2013-08-10 23:12:00,
2013-08-10 17:22:00,87.0,47.0,-100.00,East,94,13.0,17.0,25,0.00,,,0.00,850.000000,,2013-08-10 23:22:00,
2013-08-10 17:30:00,87.0,44.0,-100.00,ENE,61,10.0,17.0,22,0.00,,,0.00,692.000000,,2013-08-10 23:30:00,
2013-08-10 17:53:00,87.0,44.0,-100.00,ENE,61,10.0,17.0,22,0.00,,,0.00,692.000000,,2013-08-10 23:53:00,
2013-08-10 18:01:00,87.0,44.0,-100.00,ENE,61,10.0,17.0,22,0.00,,,0.00,692.000000,,2013-08-11 00:01:00,
2013-08-10 18:11:00,87.0,44.0,-100.00,ENE,61,10.0,17.0,22,0.00,,,0.00,692.000000,,2013-08-11 00:11:00,
2013-08-10 18:22:00,87.0,44.0,-100.00,ENE,61,10.0,17.0,22,0.00,,,0.00,692.000000,,2013-08-11 00:22:00,
2013-08-10 18:30:00,83.0,42.0,-100.00,ENE,75,7.0,16.0,24,0.00,,,0.00,157.000000,,2013-08-11 00:30:00,
2013-08-10 19:01:00,83.0,42.0,-100.00,ENE,75,7.0,16.0,24,0.00,,,0.00,157.000000,,2013-08-11 01:01:00,
2013-08-10 19:11:00,83.0,42.0,-100.00,ENE,75,7.0,16.0,24,0.00,,,0.00,157.000000,,2013-08-11 01:11:00,
2013-08-10 19:22:00,83.0,42.0,-100.00,ENE,75,7.0,16.0,24,0.00,,,0.00,157.000000,,2013-08-11 01:22:00,
2013-08-10 19:30:00,82.0,44.0,-100.00,ENE,63,8.0,13.0,26,0.00,,,0.00,62.000000,,2013-08-11 01:30:00,
2013-08-10 19:53:00,82.0,44.0,-100.00,ENE,63,8.0,13.0,26,0.00,,,0.00,62.000000,,2013-08-11 01:53:00,
2013-08-10 20:02:00,82.0,44.0,-100.00,ENE,63,8.0,13.0,26,0.00,,,0.00,62.000000,,2013-08-11 02:02:00,
2013-08-10 20:11:00,82.0,44.0,-100.00,ENE,63,8.0,13.0,26,0.00,,,0.00,62.000000,,2013-08-11 02:11:00,
2013-08-10 20:22:00,82.0,44.0,-100.00,ENE,63,8.0,13.0,26,0.00,,,0.00,62.000000,,2013-08-11 02:22:00,
2013-08-10 20:30:00,80.0,47.0,-100.00,ENE,78,7.0,13.0,32,0.00,,,0.00,28.000000,,2013-08-11 02:30:00,
2013-08-10 21:14:00,80.0,47.0,-100.00,ENE,78,7.0,13.0,32,0.00,,,0.00,28.000000,,2013-08-11 03:14:00,
2013-08-10 21:30:00,78.0,49.0,-100.00,NE,55,9.0,17.0,36,0.00,,,0.00,1.000000,,2013-08-11 03:30:00,
2013-08-10 22:01:00,78.0,49.0,-100.00,NE,55,9.0,17.0,36,0.00,,,0.00,1.000000,,2013-08-11 04:01:00,
2013-08-10 22:12:00,78.0,49.0,-100.00,NE,55,9.0,17.0,36,0.00,,,0.00,1.000000,,2013-08-11 04:12:00,
2013-08-10 22:22:00,78.0,49.0,-100.00,NE,55,9.0,17.0,36,0.00,,,0.00,1.000000,,2013-08-11 04:22:00,
2013-08-10 22:30:00,76.0,49.0,-100.00,ENE,68,7.0,20.0,38,0.00,,,0.00,0.000000,,2013-08-11 04:30:00,
2013-08-10 23:02:00,76.0,49.0,-100.00,ENE,68,7.0,20.0,38,0.00,,,0.00,0.000000,,2013-08-11 05:02:00,
2013-08-10 23:14:00,76.0,49.0,-100.00,ENE,68,7.0,20.0,38,0.00,,,0.00,0.000000,,2013-08-11 05:14:00,
2013-08-10 23:22:00,76.0,49.0,-100.00,ENE,68,7.0,20.0,38,0.00,,,0.00,0.000000,,2013-08-11 05:22:00,